sensor_id;sensor_type;location;lat;lon;timestamp;P1;durP1;ratioP1;P2;durP2;ratioP2
18659;SDS011;9459;50.254;19.014;2023-07-29T00:02:13;4.97;;;4.05;;
18659;SDS011;9459;50.254;19.014;2023-07-29T00:04:42;4.75;;;4.25;;
18659;SDS011;9459;50.254;19.014;2023-07-29T00:07:10;4.70;;;4.18;;
18659;SDS011;9459;50.254;19.014;2023-07-29T00:09:40;4.63;;;4.05;;
18659;SDS011;9459;50.254;19.014;2023-07-29T00:12:08;7.05;;;4.50;;
18659;SDS011;9459;50.254;19.014;2023-07-29T00:14:37;6.28;;;4.78;;
18659;SDS011;9459;50.254;19.014;2023-07-29T00:17:06;6.72;;;4.88;;
18659;SDS011;9459;50.254;19.014;2023-07-29T00:19:35;6.03;;;4.38;;
18659;SDS011;9459;50.254;19.014;2023-07-29T00:22:04;5.88;;;5.05;;
18659;SDS011;9459;50.254;19.014;2023-07-29T00:24:35;5.72;;;4.80;;
18659;SDS011;9459;50.254;19.014;2023-07-29T00:27:05;7.05;;;5.10;;
18659;SDS011;9459;50.254;19.014;2023-07-29T00:29:34;8.48;;;4.82;;
18659;SDS011;9459;50.254;19.014;2023-07-29T00:32:02;6.13;;;4.75;;
18659;SDS011;9459;50.254;19.014;2023-07-29T00:34:31;8.20;;;4.32;;
18659;SDS011;9459;50.254;19.014;2023-07-29T00:37:00;4.88;;;4.40;;
18659;SDS011;9459;50.254;19.014;2023-07-29T00:39:28;7.28;;;4.50;;
18659;SDS011;9459;50.254;19.014;2023-07-29T00:41:56;7.82;;;4.30;;
18659;SDS011;9459;50.254;19.014;2023-07-29T00:44:26;4.97;;;4.22;;
18659;SDS011;9459;50.254;19.014;2023-07-29T00:46:55;5.05;;;4.22;;
18659;SDS011;9459;50.254;19.014;2023-07-29T00:49:24;5.10;;;4.32;;
18659;SDS011;9459;50.254;19.014;2023-07-29T00:51:52;6.60;;;5.18;;
18659;SDS011;9459;50.254;19.014;2023-07-29T00:54:21;6.15;;;5.18;;
18659;SDS011;9459;50.254;19.014;2023-07-29T00:56:50;7.55;;;4.50;;
18659;SDS011;9459;50.254;19.014;2023-07-29T00:59:19;5.00;;;4.10;;
18659;SDS011;9459;50.254;19.014;2023-07-29T01:01:48;6.82;;;5.07;;
18659;SDS011;9459;50.254;19.014;2023-07-29T01:04:17;5.90;;;4.80;;
18659;SDS011;9459;50.254;19.014;2023-07-29T01:06:48;7.45;;;4.53;;
18659;SDS011;9459;50.254;19.014;2023-07-29T01:09:21;7.93;;;4.95;;
18659;SDS011;9459;50.254;19.014;2023-07-29T01:11:55;5.63;;;4.30;;
18659;SDS011;9459;50.254;19.014;2023-07-29T01:14:29;5.68;;;4.70;;
18659;SDS011;9459;50.254;19.014;2023-07-29T01:17:07;6.40;;;5.20;;
18659;SDS011;9459;50.254;19.014;2023-07-29T01:19:42;7.03;;;5.32;;
18659;SDS011;9459;50.254;19.014;2023-07-29T01:22:11;6.40;;;5.10;;
18659;SDS011;9459;50.254;19.014;2023-07-29T01:24:43;6.43;;;5.45;;
18659;SDS011;9459;50.254;19.014;2023-07-29T01:27:11;5.80;;;5.20;;
18659;SDS011;9459;50.254;19.014;2023-07-29T01:29:40;7.28;;;4.97;;
18659;SDS011;9459;50.254;19.014;2023-07-29T01:32:09;6.22;;;4.75;;
18659;SDS011;9459;50.254;19.014;2023-07-29T01:37:09;5.75;;;4.28;;
18659;SDS011;9459;50.254;19.014;2023-07-29T01:39:44;5.47;;;3.63;;
18659;SDS011;9459;50.254;19.014;2023-07-29T01:42:13;5.40;;;3.50;;
18659;SDS011;9459;50.254;19.014;2023-07-29T01:44:42;4.07;;;3.65;;
18659;SDS011;9459;50.254;19.014;2023-07-29T01:47:10;5.82;;;4.25;;
18659;SDS011;9459;50.254;19.014;2023-07-29T01:49:39;4.38;;;3.63;;
18659;SDS011;9459;50.254;19.014;2023-07-29T01:52:07;3.58;;;3.13;;
18659;SDS011;9459;50.254;19.014;2023-07-29T01:54:35;3.58;;;3.28;;
18659;SDS011;9459;50.254;19.014;2023-07-29T01:57:05;3.70;;;3.13;;
18659;SDS011;9459;50.254;19.014;2023-07-29T01:59:34;5.72;;;4.20;;
18659;SDS011;9459;50.254;19.014;2023-07-29T02:02:02;5.78;;;4.70;;
18659;SDS011;9459;50.254;19.014;2023-07-29T02:04:31;5.22;;;4.43;;
18659;SDS011;9459;50.254;19.014;2023-07-29T02:06:59;5.90;;;4.43;;
18659;SDS011;9459;50.254;19.014;2023-07-29T02:09:28;5.47;;;4.10;;
18659;SDS011;9459;50.254;19.014;2023-07-29T02:11:57;6.47;;;4.35;;
18659;SDS011;9459;50.254;19.014;2023-07-29T02:14:27;5.30;;;4.70;;
18659;SDS011;9459;50.254;19.014;2023-07-29T02:16:56;4.75;;;3.90;;
18659;SDS011;9459;50.254;19.014;2023-07-29T02:19:24;8.35;;;4.55;;
18659;SDS011;9459;50.254;19.014;2023-07-29T02:21:53;5.70;;;4.07;;
18659;SDS011;9459;50.254;19.014;2023-07-29T02:24:21;5.35;;;4.53;;
18659;SDS011;9459;50.254;19.014;2023-07-29T02:26:50;4.40;;;4.00;;
18659;SDS011;9459;50.254;19.014;2023-07-29T02:29:18;5.53;;;4.30;;
18659;SDS011;9459;50.254;19.014;2023-07-29T02:31:48;4.75;;;3.92;;
18659;SDS011;9459;50.254;19.014;2023-07-29T02:34:16;4.00;;;3.65;;
18659;SDS011;9459;50.254;19.014;2023-07-29T02:36:45;6.00;;;4.80;;
18659;SDS011;9459;50.254;19.014;2023-07-29T02:39:13;6.60;;;4.25;;
18659;SDS011;9459;50.254;19.014;2023-07-29T02:41:42;5.35;;;4.53;;
18659;SDS011;9459;50.254;19.014;2023-07-29T02:44:10;6.75;;;4.07;;
18659;SDS011;9459;50.254;19.014;2023-07-29T02:46:39;8.65;;;4.57;;
18659;SDS011;9459;50.254;19.014;2023-07-29T02:49:09;5.35;;;4.82;;
18659;SDS011;9459;50.254;19.014;2023-07-29T02:51:37;6.88;;;4.90;;
18659;SDS011;9459;50.254;19.014;2023-07-29T02:54:06;6.22;;;4.45;;
18659;SDS011;9459;50.254;19.014;2023-07-29T02:56:34;5.60;;;4.38;;
18659;SDS011;9459;50.254;19.014;2023-07-29T02:59:03;5.20;;;4.50;;
18659;SDS011;9459;50.254;19.014;2023-07-29T03:01:32;4.60;;;4.20;;
18659;SDS011;9459;50.254;19.014;2023-07-29T03:04:01;4.22;;;3.83;;
18659;SDS011;9459;50.254;19.014;2023-07-29T03:06:30;4.80;;;4.30;;
18659;SDS011;9459;50.254;19.014;2023-07-29T03:08:59;5.85;;;4.07;;
18659;SDS011;9459;50.254;19.014;2023-07-29T03:11:27;3.47;;;3.17;;
18659;SDS011;9459;50.254;19.014;2023-07-29T03:13:56;4.03;;;3.33;;
18659;SDS011;9459;50.254;19.014;2023-07-29T03:16:24;3.63;;;3.00;;
18659;SDS011;9459;50.254;19.014;2023-07-29T03:18:54;4.72;;;3.05;;
18659;SDS011;9459;50.254;19.014;2023-07-29T03:21:24;3.60;;;3.30;;
18659;SDS011;9459;50.254;19.014;2023-07-29T03:23:54;5.30;;;4.32;;
18659;SDS011;9459;50.254;19.014;2023-07-29T03:26:22;4.50;;;3.67;;
18659;SDS011;9459;50.254;19.014;2023-07-29T03:28:51;2.85;;;2.38;;
18659;SDS011;9459;50.254;19.014;2023-07-29T03:31:19;4.47;;;3.50;;
18659;SDS011;9459;50.254;19.014;2023-07-29T03:33:48;5.10;;;3.97;;
18659;SDS011;9459;50.254;19.014;2023-07-29T03:36:16;4.53;;;4.03;;
18659;SDS011;9459;50.254;19.014;2023-07-29T03:38:46;5.05;;;4.20;;
18659;SDS011;9459;50.254;19.014;2023-07-29T03:41:15;4.32;;;3.92;;
18659;SDS011;9459;50.254;19.014;2023-07-29T03:43:44;4.88;;;4.13;;
18659;SDS011;9459;50.254;19.014;2023-07-29T03:46:12;7.97;;;4.10;;
18659;SDS011;9459;50.254;19.014;2023-07-29T03:48:45;6.28;;;5.35;;
18659;SDS011;9459;50.254;19.014;2023-07-29T03:51:13;5.13;;;4.35;;
18659;SDS011;9459;50.254;19.014;2023-07-29T03:53:42;4.53;;;4.10;;
18659;SDS011;9459;50.254;19.014;2023-07-29T03:56:10;5.55;;;4.13;;
18659;SDS011;9459;50.254;19.014;2023-07-29T03:58:40;4.10;;;3.70;;
18659;SDS011;9459;50.254;19.014;2023-07-29T04:01:08;4.03;;;3.35;;
18659;SDS011;9459;50.254;19.014;2023-07-29T04:03:37;4.72;;;3.38;;
18659;SDS011;9459;50.254;19.014;2023-07-29T04:06:05;3.67;;;3.35;;
18659;SDS011;9459;50.254;19.014;2023-07-29T04:08:34;4.43;;;3.85;;
18659;SDS011;9459;50.254;19.014;2023-07-29T04:11:02;4.13;;;3.50;;
18659;SDS011;9459;50.254;19.014;2023-07-29T04:13:31;7.57;;;3.92;;
18659;SDS011;9459;50.254;19.014;2023-07-29T04:16:01;3.63;;;3.13;;
18659;SDS011;9459;50.254;19.014;2023-07-29T04:18:29;3.95;;;3.30;;
18659;SDS011;9459;50.254;19.014;2023-07-29T04:20:58;3.08;;;2.78;;
18659;SDS011;9459;50.254;19.014;2023-07-29T04:23:26;4.32;;;3.13;;
18659;SDS011;9459;50.254;19.014;2023-07-29T04:25:55;4.28;;;3.35;;
18659;SDS011;9459;50.254;19.014;2023-07-29T04:28:23;3.40;;;3.10;;
18659;SDS011;9459;50.254;19.014;2023-07-29T04:30:52;3.65;;;3.20;;
18659;SDS011;9459;50.254;19.014;2023-07-29T04:33:23;3.65;;;3.20;;
18659;SDS011;9459;50.254;19.014;2023-07-29T04:35:51;5.10;;;2.85;;
18659;SDS011;9459;50.254;19.014;2023-07-29T04:38:20;3.92;;;3.15;;
18659;SDS011;9459;50.254;19.014;2023-07-29T04:40:49;4.18;;;3.40;;
18659;SDS011;9459;50.254;19.014;2023-07-29T04:43:18;5.50;;;2.60;;
18659;SDS011;9459;50.254;19.014;2023-07-29T04:45:46;3.25;;;2.72;;
18659;SDS011;9459;50.254;19.014;2023-07-29T04:48:15;2.78;;;2.47;;
18659;SDS011;9459;50.254;19.014;2023-07-29T04:50:44;3.20;;;2.70;;
18659;SDS011;9459;50.254;19.014;2023-07-29T04:53:13;3.38;;;2.80;;
18659;SDS011;9459;50.254;19.014;2023-07-29T04:55:41;4.63;;;3.25;;
18659;SDS011;9459;50.254;19.014;2023-07-29T04:58:10;4.55;;;2.92;;
18659;SDS011;9459;50.254;19.014;2023-07-29T05:00:39;4.60;;;3.08;;
18659;SDS011;9459;50.254;19.014;2023-07-29T05:03:08;4.00;;;3.03;;
18659;SDS011;9459;50.254;19.014;2023-07-29T05:05:36;4.88;;;3.05;;
18659;SDS011;9459;50.254;19.014;2023-07-29T05:08:06;4.07;;;3.22;;
18659;SDS011;9459;50.254;19.014;2023-07-29T05:10:34;4.28;;;3.35;;
18659;SDS011;9459;50.254;19.014;2023-07-29T05:13:04;3.80;;;2.85;;
18659;SDS011;9459;50.254;19.014;2023-07-29T05:15:32;3.80;;;3.08;;
18659;SDS011;9459;50.254;19.014;2023-07-29T05:18:01;3.15;;;2.58;;
18659;SDS011;9459;50.254;19.014;2023-07-29T05:20:29;3.38;;;2.90;;
18659;SDS011;9459;50.254;19.014;2023-07-29T05:22:58;4.05;;;3.00;;
18659;SDS011;9459;50.254;19.014;2023-07-29T05:25:28;3.78;;;3.03;;
18659;SDS011;9459;50.254;19.014;2023-07-29T05:27:57;4.87;;;2.60;;
18659;SDS011;9459;50.254;19.014;2023-07-29T05:30:25;3.88;;;3.22;;
18659;SDS011;9459;50.254;19.014;2023-07-29T05:32:57;6.78;;;3.35;;
18659;SDS011;9459;50.254;19.014;2023-07-29T05:35:25;3.72;;;2.95;;
18659;SDS011;9459;50.254;19.014;2023-07-29T05:37:53;3.85;;;2.90;;
18659;SDS011;9459;50.254;19.014;2023-07-29T05:40:22;3.88;;;3.15;;
18659;SDS011;9459;50.254;19.014;2023-07-29T05:42:52;3.65;;;3.28;;
18659;SDS011;9459;50.254;19.014;2023-07-29T05:45:20;4.18;;;2.92;;
18659;SDS011;9459;50.254;19.014;2023-07-29T05:47:49;3.97;;;2.88;;
18659;SDS011;9459;50.254;19.014;2023-07-29T05:50:17;5.65;;;3.20;;
18659;SDS011;9459;50.254;19.014;2023-07-29T05:52:46;3.22;;;2.92;;
18659;SDS011;9459;50.254;19.014;2023-07-29T05:55:14;4.28;;;3.55;;
18659;SDS011;9459;50.254;19.014;2023-07-29T05:57:43;5.28;;;3.40;;
18659;SDS011;9459;50.254;19.014;2023-07-29T06:00:13;3.67;;;2.92;;
18659;SDS011;9459;50.254;19.014;2023-07-29T06:02:42;4.80;;;2.90;;
18659;SDS011;9459;50.254;19.014;2023-07-29T06:05:10;5.18;;;3.25;;
18659;SDS011;9459;50.254;19.014;2023-07-29T06:07:39;3.08;;;2.60;;
18659;SDS011;9459;50.254;19.014;2023-07-29T06:10:12;4.05;;;2.58;;
18659;SDS011;9459;50.254;19.014;2023-07-29T06:12:41;3.40;;;2.70;;
18659;SDS011;9459;50.254;19.014;2023-07-29T06:15:09;3.95;;;2.40;;
18659;SDS011;9459;50.254;19.014;2023-07-29T06:17:40;5.13;;;2.85;;
18659;SDS011;9459;50.254;19.014;2023-07-29T06:20:09;3.20;;;2.37;;
18659;SDS011;9459;50.254;19.014;2023-07-29T06:22:38;3.20;;;2.47;;
18659;SDS011;9459;50.254;19.014;2023-07-29T06:25:06;3.05;;;2.47;;
18659;SDS011;9459;50.254;19.014;2023-07-29T06:27:36;3.13;;;2.55;;
18659;SDS011;9459;50.254;19.014;2023-07-29T06:30:04;3.45;;;2.33;;
18659;SDS011;9459;50.254;19.014;2023-07-29T06:32:34;3.25;;;2.63;;
18659;SDS011;9459;50.254;19.014;2023-07-29T06:35:04;3.63;;;2.60;;
18659;SDS011;9459;50.254;19.014;2023-07-29T06:37:33;3.45;;;2.30;;
18659;SDS011;9459;50.254;19.014;2023-07-29T06:40:02;2.33;;;1.90;;
18659;SDS011;9459;50.254;19.014;2023-07-29T06:42:31;3.35;;;2.88;;
18659;SDS011;9459;50.254;19.014;2023-07-29T06:44:59;2.97;;;2.20;;
18659;SDS011;9459;50.254;19.014;2023-07-29T06:47:28;3.55;;;2.47;;
18659;SDS011;9459;50.254;19.014;2023-07-29T06:49:56;3.53;;;1.92;;
18659;SDS011;9459;50.254;19.014;2023-07-29T06:52:26;4.35;;;2.25;;
18659;SDS011;9459;50.254;19.014;2023-07-29T06:54:55;2.10;;;1.90;;
18659;SDS011;9459;50.254;19.014;2023-07-29T06:57:23;2.83;;;2.00;;
18659;SDS011;9459;50.254;19.014;2023-07-29T06:59:52;2.92;;;2.13;;
18659;SDS011;9459;50.254;19.014;2023-07-29T07:02:20;3.33;;;2.22;;
18659;SDS011;9459;50.254;19.014;2023-07-29T07:04:49;2.30;;;1.73;;
18659;SDS011;9459;50.254;19.014;2023-07-29T07:07:17;3.65;;;1.90;;
18659;SDS011;9459;50.254;19.014;2023-07-29T07:09:47;5.53;;;2.50;;
18659;SDS011;9459;50.254;19.014;2023-07-29T07:12:16;2.67;;;2.00;;
18659;SDS011;9459;50.254;19.014;2023-07-29T07:14:44;2.10;;;1.70;;
18659;SDS011;9459;50.254;19.014;2023-07-29T07:17:13;2.03;;;1.77;;
18659;SDS011;9459;50.254;19.014;2023-07-29T07:19:42;4.35;;;2.13;;
18659;SDS011;9459;50.254;19.014;2023-07-29T07:22:10;3.00;;;2.10;;
18659;SDS011;9459;50.254;19.014;2023-07-29T07:24:38;4.53;;;2.22;;
18659;SDS011;9459;50.254;19.014;2023-07-29T07:27:08;2.83;;;2.30;;
18659;SDS011;9459;50.254;19.014;2023-07-29T07:29:37;2.30;;;1.85;;
18659;SDS011;9459;50.254;19.014;2023-07-29T07:32:06;2.38;;;2.17;;
18659;SDS011;9459;50.254;19.014;2023-07-29T07:34:34;1.85;;;1.48;;
18659;SDS011;9459;50.254;19.014;2023-07-29T07:37:03;2.25;;;1.80;;
18659;SDS011;9459;50.254;19.014;2023-07-29T07:39:32;3.63;;;1.50;;
18659;SDS011;9459;50.254;19.014;2023-07-29T07:42:00;2.30;;;1.35;;
18659;SDS011;9459;50.254;19.014;2023-07-29T07:44:30;1.13;;;0.90;;
18659;SDS011;9459;50.254;19.014;2023-07-29T07:46:59;1.98;;;1.35;;
18659;SDS011;9459;50.254;19.014;2023-07-29T07:49:30;1.40;;;1.10;;
18659;SDS011;9459;50.254;19.014;2023-07-29T07:51:59;1.77;;;1.30;;
18659;SDS011;9459;50.254;19.014;2023-07-29T07:54:27;2.17;;;1.35;;
18659;SDS011;9459;50.254;19.014;2023-07-29T07:56:56;1.88;;;1.17;;
18659;SDS011;9459;50.254;19.014;2023-07-29T07:59:24;1.23;;;1.08;;
18659;SDS011;9459;50.254;19.014;2023-07-29T08:01:54;1.35;;;1.25;;
18659;SDS011;9459;50.254;19.014;2023-07-29T08:04:22;1.55;;;0.93;;
18659;SDS011;9459;50.254;19.014;2023-07-29T08:06:51;1.02;;;0.90;;
18659;SDS011;9459;50.254;19.014;2023-07-29T08:09:20;1.63;;;1.10;;
18659;SDS011;9459;50.254;19.014;2023-07-29T08:11:48;1.15;;;1.00;;
18659;SDS011;9459;50.254;19.014;2023-07-29T08:14:16;1.85;;;1.17;;
18659;SDS011;9459;50.254;19.014;2023-07-29T08:16:45;2.00;;;1.23;;
18659;SDS011;9459;50.254;19.014;2023-07-29T08:19:15;1.90;;;1.38;;
18659;SDS011;9459;50.254;19.014;2023-07-29T08:21:46;1.15;;;1.05;;
18659;SDS011;9459;50.254;19.014;2023-07-29T08:24:15;1.63;;;1.17;;
18659;SDS011;9459;50.254;19.014;2023-07-29T08:26:44;2.95;;;1.00;;
18659;SDS011;9459;50.254;19.014;2023-07-29T08:29:12;1.85;;;1.50;;
18659;SDS011;9459;50.254;19.014;2023-07-29T08:31:41;2.67;;;1.20;;
18659;SDS011;9459;50.254;19.014;2023-07-29T08:34:09;1.58;;;1.35;;
18659;SDS011;9459;50.254;19.014;2023-07-29T08:36:39;1.50;;;1.40;;
18659;SDS011;9459;50.254;19.014;2023-07-29T08:41:37;1.65;;;1.27;;
18659;SDS011;9459;50.254;19.014;2023-07-29T08:44:09;1.95;;;1.20;;
18659;SDS011;9459;50.254;19.014;2023-07-29T08:46:39;1.48;;;1.10;;
18659;SDS011;9459;50.254;19.014;2023-07-29T08:49:08;1.65;;;1.30;;
18659;SDS011;9459;50.254;19.014;2023-07-29T08:51:36;2.95;;;1.48;;
18659;SDS011;9459;50.254;19.014;2023-07-29T08:54:07;2.72;;;1.20;;
18659;SDS011;9459;50.254;19.014;2023-07-29T08:56:36;2.08;;;1.20;;
18659;SDS011;9459;50.254;19.014;2023-07-29T08:59:05;1.23;;;1.10;;
18659;SDS011;9459;50.254;19.014;2023-07-29T09:01:34;3.53;;;1.35;;
18659;SDS011;9459;50.254;19.014;2023-07-29T09:04:03;1.45;;;1.35;;
18659;SDS011;9459;50.254;19.014;2023-07-29T09:06:32;1.95;;;1.60;;
18659;SDS011;9459;50.254;19.014;2023-07-29T09:09:01;3.15;;;1.20;;
18659;SDS011;9459;50.254;19.014;2023-07-29T09:11:32;2.30;;;1.20;;
18659;SDS011;9459;50.254;19.014;2023-07-29T09:14:01;2.13;;;1.40;;
18659;SDS011;9459;50.254;19.014;2023-07-29T09:16:29;1.67;;;1.35;;
18659;SDS011;9459;50.254;19.014;2023-07-29T09:19:00;3.00;;;2.10;;
18659;SDS011;9459;50.254;19.014;2023-07-29T09:21:30;2.13;;;1.70;;
18659;SDS011;9459;50.254;19.014;2023-07-29T09:24:02;2.53;;;1.88;;
18659;SDS011;9459;50.254;19.014;2023-07-29T09:26:34;2.03;;;1.73;;
18659;SDS011;9459;50.254;19.014;2023-07-29T09:29:03;3.15;;;1.50;;
18659;SDS011;9459;50.254;19.014;2023-07-29T09:31:32;2.03;;;1.40;;
18659;SDS011;9459;50.254;19.014;2023-07-29T09:34:01;3.47;;;1.40;;
18659;SDS011;9459;50.254;19.014;2023-07-29T09:36:31;2.08;;;1.05;;
18659;SDS011;9459;50.254;19.014;2023-07-29T09:39:01;2.13;;;1.70;;
18659;SDS011;9459;50.254;19.014;2023-07-29T09:44:01;2.80;;;1.75;;
18659;SDS011;9459;50.254;19.014;2023-07-29T09:46:32;2.30;;;1.40;;
18659;SDS011;9459;50.254;19.014;2023-07-29T09:49:03;2.20;;;1.20;;
18659;SDS011;9459;50.254;19.014;2023-07-29T09:51:32;1.20;;;1.10;;
18659;SDS011;9459;50.254;19.014;2023-07-29T09:54:05;1.50;;;1.30;;
18659;SDS011;9459;50.254;19.014;2023-07-29T09:56:34;1.23;;;1.13;;
18659;SDS011;9459;50.254;19.014;2023-07-29T09:59:08;2.03;;;1.48;;
18659;SDS011;9459;50.254;19.014;2023-07-29T10:01:38;1.55;;;1.00;;
18659;SDS011;9459;50.254;19.014;2023-07-29T10:04:07;1.42;;;1.10;;
18659;SDS011;9459;50.254;19.014;2023-07-29T10:06:39;1.88;;;1.45;;
18659;SDS011;9459;50.254;19.014;2023-07-29T10:09:10;3.65;;;1.30;;
18659;SDS011;9459;50.254;19.014;2023-07-29T10:11:40;1.70;;;1.50;;
18659;SDS011;9459;50.254;19.014;2023-07-29T10:14:10;2.13;;;1.23;;
18659;SDS011;9459;50.254;19.014;2023-07-29T10:16:39;1.65;;;1.42;;
18659;SDS011;9459;50.254;19.014;2023-07-29T10:19:08;1.67;;;1.30;;
18659;SDS011;9459;50.254;19.014;2023-07-29T10:21:39;1.75;;;1.10;;
18659;SDS011;9459;50.254;19.014;2023-07-29T10:24:14;1.40;;;1.20;;
18659;SDS011;9459;50.254;19.014;2023-07-29T10:26:44;1.92;;;1.27;;
18659;SDS011;9459;50.254;19.014;2023-07-29T10:29:15;2.15;;;1.60;;
18659;SDS011;9459;50.254;19.014;2023-07-29T10:31:47;2.70;;;1.70;;
18659;SDS011;9459;50.254;19.014;2023-07-29T10:34:16;2.00;;;1.80;;
18659;SDS011;9459;50.254;19.014;2023-07-29T10:36:45;2.38;;;1.85;;
18659;SDS011;9459;50.254;19.014;2023-07-29T10:39:15;3.40;;;1.80;;
18659;SDS011;9459;50.254;19.014;2023-07-29T10:41:56;2.50;;;1.90;;
18659;SDS011;9459;50.254;19.014;2023-07-29T10:47:21;2.00;;;1.80;;
18659;SDS011;9459;50.254;19.014;2023-07-29T10:49:51;2.47;;;2.28;;
18659;SDS011;9459;50.254;19.014;2023-07-29T10:52:29;3.70;;;2.22;;
18659;SDS011;9459;50.254;19.014;2023-07-29T10:54:58;2.45;;;1.75;;
18659;SDS011;9459;50.254;19.014;2023-07-29T10:57:32;2.83;;;1.95;;
18659;SDS011;9459;50.254;19.014;2023-07-29T11:00:02;3.83;;;1.80;;
18659;SDS011;9459;50.254;19.014;2023-07-29T11:02:34;2.20;;;1.70;;
18659;SDS011;9459;50.254;19.014;2023-07-29T11:05:04;2.38;;;1.50;;
18659;SDS011;9459;50.254;19.014;2023-07-29T11:07:43;2.42;;;1.60;;
18659;SDS011;9459;50.254;19.014;2023-07-29T11:10:12;1.70;;;1.35;;
18659;SDS011;9459;50.254;19.014;2023-07-29T11:12:42;2.33;;;1.63;;
18659;SDS011;9459;50.254;19.014;2023-07-29T11:15:18;1.40;;;1.27;;
18659;SDS011;9459;50.254;19.014;2023-07-29T11:17:48;1.75;;;1.50;;
18659;SDS011;9459;50.254;19.014;2023-07-29T11:20:18;1.60;;;1.50;;
18659;SDS011;9459;50.254;19.014;2023-07-29T11:22:47;1.80;;;1.50;;
18659;SDS011;9459;50.254;19.014;2023-07-29T11:25:16;1.30;;;1.20;;
18659;SDS011;9459;50.254;19.014;2023-07-29T11:27:46;1.30;;;1.20;;
18659;SDS011;9459;50.254;19.014;2023-07-29T11:30:15;1.50;;;1.40;;
18659;SDS011;9459;50.254;19.014;2023-07-29T11:32:45;1.50;;;1.20;;
18659;SDS011;9459;50.254;19.014;2023-07-29T11:35:15;2.03;;;1.38;;
18659;SDS011;9459;50.254;19.014;2023-07-29T11:40:14;2.03;;;1.30;;
18659;SDS011;9459;50.254;19.014;2023-07-29T11:42:43;1.30;;;1.20;;
18659;SDS011;9459;50.254;19.014;2023-07-29T11:45:13;1.25;;;1.10;;
18659;SDS011;9459;50.254;19.014;2023-07-29T11:47:45;1.58;;;1.10;;
18659;SDS011;9459;50.254;19.014;2023-07-29T11:52:44;1.10;;;1.00;;
18659;SDS011;9459;50.254;19.014;2023-07-29T11:57:43;1.50;;;1.40;;
18659;SDS011;9459;50.254;19.014;2023-07-29T12:00:11;1.40;;;1.30;;
18659;SDS011;9459;50.254;19.014;2023-07-29T12:02:42;1.60;;;1.30;;
18659;SDS011;9459;50.254;19.014;2023-07-29T12:05:14;1.30;;;1.20;;
18659;SDS011;9459;50.254;19.014;2023-07-29T12:07:43;1.60;;;1.20;;
18659;SDS011;9459;50.254;19.014;2023-07-29T12:10:12;1.45;;;1.20;;
18659;SDS011;9459;50.254;19.014;2023-07-29T12:12:44;1.25;;;1.15;;
18659;SDS011;9459;50.254;19.014;2023-07-29T12:15:14;1.95;;;1.50;;
18659;SDS011;9459;50.254;19.014;2023-07-29T12:17:55;1.70;;;1.45;;
18659;SDS011;9459;50.254;19.014;2023-07-29T12:20:26;1.50;;;1.40;;
18659;SDS011;9459;50.254;19.014;2023-07-29T12:22:56;1.42;;;1.33;;
18659;SDS011;9459;50.254;19.014;2023-07-29T12:25:25;1.40;;;1.30;;
18659;SDS011;9459;50.254;19.014;2023-07-29T12:27:54;1.33;;;1.20;;
18659;SDS011;9459;50.254;19.014;2023-07-29T12:30:23;1.05;;;0.95;;
18659;SDS011;9459;50.254;19.014;2023-07-29T12:32:53;1.40;;;1.30;;
18659;SDS011;9459;50.254;19.014;2023-07-29T12:35:21;1.30;;;1.20;;
18659;SDS011;9459;50.254;19.014;2023-07-29T12:37:59;2.20;;;1.00;;
18659;SDS011;9459;50.254;19.014;2023-07-29T12:40:28;1.40;;;1.30;;
18659;SDS011;9459;50.254;19.014;2023-07-29T12:42:57;1.65;;;1.20;;
18659;SDS011;9459;50.254;19.014;2023-07-29T12:45:25;1.30;;;1.15;;
18659;SDS011;9459;50.254;19.014;2023-07-29T12:47:56;1.27;;;1.17;;
18659;SDS011;9459;50.254;19.014;2023-07-29T12:50:25;1.20;;;0.95;;
18659;SDS011;9459;50.254;19.014;2023-07-29T12:52:53;1.33;;;1.20;;
18659;SDS011;9459;50.254;19.014;2023-07-29T12:55:23;1.30;;;1.20;;
18659;SDS011;9459;50.254;19.014;2023-07-29T12:57:52;2.53;;;1.30;;
18659;SDS011;9459;50.254;19.014;2023-07-29T13:00:20;1.58;;;1.42;;
18659;SDS011;9459;50.254;19.014;2023-07-29T13:02:49;1.60;;;1.50;;
18659;SDS011;9459;50.254;19.014;2023-07-29T13:05:18;1.48;;;1.30;;
18659;SDS011;9459;50.254;19.014;2023-07-29T13:07:46;1.63;;;1.30;;
18659;SDS011;9459;50.254;19.014;2023-07-29T13:10:15;1.65;;;1.55;;
18659;SDS011;9459;50.254;19.014;2023-07-29T13:12:44;1.73;;;1.30;;
18659;SDS011;9459;50.254;19.014;2023-07-29T13:15:13;1.77;;;1.30;;
18659;SDS011;9459;50.254;19.014;2023-07-29T13:17:41;1.10;;;1.00;;
18659;SDS011;9459;50.254;19.014;2023-07-29T13:20:10;1.63;;;1.02;;
18659;SDS011;9459;50.254;19.014;2023-07-29T13:22:39;1.20;;;1.10;;
18659;SDS011;9459;50.254;19.014;2023-07-29T13:25:07;1.65;;;1.10;;
18659;SDS011;9459;50.254;19.014;2023-07-29T13:27:36;2.35;;;1.25;;
18659;SDS011;9459;50.254;19.014;2023-07-29T13:30:06;2.03;;;1.52;;
18659;SDS011;9459;50.254;19.014;2023-07-29T13:32:36;1.88;;;1.65;;
18659;SDS011;9459;50.254;19.014;2023-07-29T13:35:04;1.50;;;1.38;;
18659;SDS011;9459;50.254;19.014;2023-07-29T13:37:33;3.38;;;1.13;;
18659;SDS011;9459;50.254;19.014;2023-07-29T13:40:02;1.77;;;1.00;;
18659;SDS011;9459;50.254;19.014;2023-07-29T13:42:31;2.08;;;1.40;;
18659;SDS011;9459;50.254;19.014;2023-07-29T13:45:00;2.25;;;1.35;;
18659;SDS011;9459;50.254;19.014;2023-07-29T13:47:31;2.13;;;1.10;;
18659;SDS011;9459;50.254;19.014;2023-07-29T13:49:59;2.58;;;1.25;;
18659;SDS011;9459;50.254;19.014;2023-07-29T13:52:28;2.58;;;1.58;;
18659;SDS011;9459;50.254;19.014;2023-07-29T13:54:57;2.08;;;1.70;;
18659;SDS011;9459;50.254;19.014;2023-07-29T13:57:26;2.30;;;1.40;;
18659;SDS011;9459;50.254;19.014;2023-07-29T13:59:54;1.40;;;1.30;;
18659;SDS011;9459;50.254;19.014;2023-07-29T14:02:23;2.72;;;1.58;;
18659;SDS011;9459;50.254;19.014;2023-07-29T14:04:54;1.42;;;1.30;;
18659;SDS011;9459;50.254;19.014;2023-07-29T14:07:23;1.35;;;1.20;;
18659;SDS011;9459;50.254;19.014;2023-07-29T14:09:52;2.00;;;1.17;;
18659;SDS011;9459;50.254;19.014;2023-07-29T14:12:20;3.35;;;1.20;;
18659;SDS011;9459;50.254;19.014;2023-07-29T14:14:49;1.45;;;1.08;;
18659;SDS011;9459;50.254;19.014;2023-07-29T14:17:17;1.95;;;1.40;;
18659;SDS011;9459;50.254;19.014;2023-07-29T14:19:46;1.40;;;1.15;;
18659;SDS011;9459;50.254;19.014;2023-07-29T14:22:16;1.65;;;1.30;;
18659;SDS011;9459;50.254;19.014;2023-07-29T14:24:44;2.30;;;1.30;;
18659;SDS011;9459;50.254;19.014;2023-07-29T14:27:13;3.08;;;1.42;;
18659;SDS011;9459;50.254;19.014;2023-07-29T14:29:43;2.00;;;1.20;;
18659;SDS011;9459;50.254;19.014;2023-07-29T14:32:11;1.77;;;0.98;;
18659;SDS011;9459;50.254;19.014;2023-07-29T14:34:40;1.70;;;1.30;;
18659;SDS011;9459;50.254;19.014;2023-07-29T14:37:08;1.10;;;1.00;;
18659;SDS011;9459;50.254;19.014;2023-07-29T14:39:38;2.10;;;1.45;;
18659;SDS011;9459;50.254;19.014;2023-07-29T14:42:06;1.73;;;1.27;;
18659;SDS011;9459;50.254;19.014;2023-07-29T14:44:35;2.25;;;1.63;;
18659;SDS011;9459;50.254;19.014;2023-07-29T14:47:04;1.80;;;1.45;;
18659;SDS011;9459;50.254;19.014;2023-07-29T14:49:33;3.38;;;1.70;;
18659;SDS011;9459;50.254;19.014;2023-07-29T14:52:01;2.67;;;1.48;;
18659;SDS011;9459;50.254;19.014;2023-07-29T14:54:30;2.35;;;1.70;;
18659;SDS011;9459;50.254;19.014;2023-07-29T14:57:00;1.65;;;1.48;;
18659;SDS011;9459;50.254;19.014;2023-07-29T14:59:29;1.67;;;1.58;;
18659;SDS011;9459;50.254;19.014;2023-07-29T15:01:57;2.30;;;1.77;;
18659;SDS011;9459;50.254;19.014;2023-07-29T15:04:25;2.10;;;1.60;;
18659;SDS011;9459;50.254;19.014;2023-07-29T15:06:54;2.45;;;1.30;;
18659;SDS011;9459;50.254;19.014;2023-07-29T15:09:24;1.90;;;1.07;;
18659;SDS011;9459;50.254;19.014;2023-07-29T15:11:53;1.77;;;1.13;;
18659;SDS011;9459;50.254;19.014;2023-07-29T15:14:26;1.50;;;1.30;;
18659;SDS011;9459;50.254;19.014;2023-07-29T15:16:54;1.35;;;1.10;;
18659;SDS011;9459;50.254;19.014;2023-07-29T15:19:23;2.53;;;1.20;;